createdAt,value
2023-03-26T00:00:40.924Z,100.00
2023-03-26T00:05:45.860Z,100.00
2023-03-26T00:10:48.792Z,100.00
2023-03-26T00:15:53.138Z,100.00
2023-03-26T00:20:56.387Z,100.00
2023-03-26T00:25:58.955Z,100.00
2023-03-26T00:31:04.107Z,100.00
2023-03-26T00:36:11.115Z,100.00
2023-03-26T00:41:25.114Z,100.00
2023-03-26T00:46:29.926Z,100.00
2023-03-26T00:51:34.165Z,100.00
2023-03-26T00:56:37.138Z,100.00
2023-03-26T01:01:40.185Z,100.00
2023-03-26T01:06:45.429Z,100.00
2023-03-26T01:11:49.892Z,100.00
2023-03-26T01:16:55.317Z,100.00
2023-03-26T01:21:59.170Z,100.00
2023-03-26T01:27:20.068Z,100.00
2023-03-26T01:32:28.154Z,100.00
2023-03-26T01:37:38.983Z,100.00
2023-03-26T01:42:58.720Z,100.00
2023-03-26T01:48:02.277Z,100.00
2023-03-26T01:53:05.937Z,100.00
2023-03-26T01:58:24.736Z,100.00
2023-03-26T02:03:34.772Z,100.00
2023-03-26T02:08:46.827Z,100.00
2023-03-26T02:13:50.834Z,100.00
2023-03-26T02:18:55.845Z,100.00
2023-03-26T02:24:03.507Z,100.00
2023-03-26T02:29:10.218Z,100.00
2023-03-26T02:34:16.385Z,100.00
2023-03-26T02:39:26.516Z,100.00
2023-03-26T02:44:40.289Z,100.00
2023-03-26T02:49:54.636Z,100.00
2023-03-26T02:55:09.622Z,100.00
2023-03-26T03:00:15.403Z,100.00
2023-03-26T03:05:21.184Z,100.00
2023-03-26T03:10:32.803Z,100.00
2023-03-26T03:15:49.017Z,100.00
2023-03-26T03:20:51.761Z,100.00
2023-03-26T03:25:57.512Z,100.00
2023-03-26T03:31:00.165Z,100.00
2023-03-26T03:36:20.674Z,100.00
2023-03-26T03:41:27.148Z,100.00
2023-03-26T03:46:29.816Z,100.00
2023-03-26T03:51:32.491Z,100.00
2023-03-26T03:56:39.207Z,100.00
2023-03-26T04:01:59.701Z,100.00
2023-03-26T04:07:15.713Z,100.00
2023-03-26T04:12:38.220Z,100.00
2023-03-26T04:17:42.914Z,100.00
2023-03-26T04:22:50.570Z,100.00
2023-03-26T04:27:58.593Z,100.00
2023-03-26T04:33:25.149Z,100.00
2023-03-26T04:38:38.252Z,100.00
2023-03-26T04:43:47.695Z,100.00
2023-03-26T04:48:54.792Z,100.00
2023-03-26T04:54:00.123Z,98.98
2023-03-26T04:59:08.246Z,97.00
2023-03-26T05:04:15.746Z,98.17
2023-03-26T05:09:19.684Z,97.68
2023-03-26T05:14:46.062Z,97.74
2023-03-26T05:19:54.681Z,96.42
2023-03-26T05:24:58.005Z,95.99
2023-03-26T05:30:05.018Z,94.88
2023-03-26T05:35:20.062Z,94.90
2023-03-26T05:40:22.975Z,94.29
2023-03-26T05:45:36.613Z,93.66
2023-03-26T05:51:02.183Z,93.17
2023-03-26T05:56:07.657Z,93.03
2023-03-26T06:01:29.494Z,93.17
2023-03-26T06:06:52.902Z,86.49
2023-03-26T06:11:56.131Z,89.86
2023-03-26T06:16:59.149Z,89.18
2023-03-26T06:22:01.756Z,90.10
2023-03-26T06:27:19.618Z,87.23
2023-03-26T06:32:40.598Z,85.69
2023-03-26T06:37:50.817Z,87.50
2023-03-26T06:43:08.805Z,86.64
2023-03-26T06:48:22.373Z,88.17
2023-03-26T06:53:43.416Z,90.82
2023-03-26T06:59:04.758Z,90.27
2023-03-26T07:04:26.153Z,88.50
2023-03-26T07:09:48.342Z,87.48
2023-03-26T07:15:24.096Z,88.97
2023-03-26T07:20:46.611Z,86.85
2023-03-26T07:25:50.117Z,88.69
2023-03-26T07:31:36.688Z,89.34
2023-03-26T07:37:14.991Z,94.08
2023-03-26T07:42:58.986Z,92.69
2023-03-26T07:48:25.716Z,95.99
2023-03-26T07:53:43.606Z,98.41
2023-03-26T07:59:07.334Z,100.00
2023-03-26T08:04:49.861Z,100.00
2023-03-26T08:10:29.663Z,100.00
2023-03-26T08:16:00.695Z,100.00
2023-03-26T08:21:17.440Z,100.00
2023-03-26T08:27:03.466Z,100.00
2023-03-26T08:32:14.025Z,100.00
2023-03-26T08:37:16.610Z,100.00
2023-03-26T08:42:22.169Z,100.00
2023-03-26T08:48:03.916Z,100.00
2023-03-26T08:53:15.562Z,100.00
2023-03-26T08:58:21.574Z,100.00
2023-03-26T09:03:54.819Z,100.00
2023-03-26T09:09:34.811Z,100.00
2023-03-26T09:15:08.754Z,100.00
2023-03-26T09:20:45.660Z,100.00
2023-03-26T09:25:54.435Z,100.00
2023-03-26T09:31:35.064Z,100.00
2023-03-26T09:36:57.608Z,100.00
2023-03-26T09:42:23.726Z,78.06
2023-03-26T09:48:06.109Z,73.37
2023-03-26T09:53:21.107Z,79.84
2023-03-26T09:58:53.801Z,80.01
2023-03-26T10:04:24.011Z,79.01
2023-03-26T10:10:00.547Z,79.77
2023-03-26T10:15:23.966Z,78.76
2023-03-26T10:20:38.412Z,76.04
2023-03-26T10:25:59.829Z,70.89
2023-03-26T10:31:14.379Z,67.25
2023-03-26T10:36:27.013Z,59.46
2023-03-26T10:42:02.593Z,52.31
2023-03-26T10:47:40.554Z,48.76
2023-03-26T10:53:11.363Z,46.55
2023-03-26T10:58:24.488Z,40.99
2023-03-26T11:03:45.980Z,51.05
2023-03-26T11:09:03.832Z,51.92
2023-03-26T11:14:24.442Z,38.79
2023-03-26T11:19:45.220Z,38.24
2023-03-26T11:24:48.003Z,36.94
2023-03-26T11:30:03.025Z,38.27
2023-03-26T11:35:39.388Z,38.47
2023-03-26T11:40:51.096Z,36.41
2023-03-26T11:46:20.326Z,33.69
2023-03-26T11:51:36.952Z,31.29
2023-03-26T11:57:07.172Z,34.45
2023-03-26T12:02:12.977Z,34.03
2023-03-26T12:07:17.448Z,32.88
2023-03-26T12:12:21.835Z,33.37
2023-03-26T12:17:31.284Z,34.34
2023-03-26T12:22:37.598Z,35.57
2023-03-26T12:27:49.816Z,37.71
2023-03-26T12:32:57.177Z,36.30
2023-03-26T12:38:38.363Z,39.80
2023-03-26T12:44:53.000Z,45.54
2023-03-26T12:49:16.952Z,47.68
2023-03-26T12:54:53.886Z,45.17
2023-03-26T13:00:21.621Z,40.33
2023-03-26T13:05:46.006Z,37.49
2023-03-26T13:11:10.364Z,36.34
2023-03-26T13:16:50.817Z,33.77
2023-03-26T13:22:03.426Z,37.06
2023-03-26T13:27:26.607Z,37.64
2023-03-26T13:33:06.225Z,38.79
2023-03-26T13:38:18.600Z,42.28
2023-03-26T13:43:27.246Z,43.23
2023-03-26T13:48:54.611Z,45.47
2023-03-26T13:54:07.858Z,45.97
2023-03-26T13:59:21.925Z,43.42
2023-03-26T14:04:46.652Z,39.88
2023-03-26T14:09:55.463Z,44.10
2023-03-26T14:15:02.933Z,46.53
2023-03-26T14:20:08.358Z,46.22
2023-03-26T14:25:51.742Z,48.63
2023-03-26T14:31:13.528Z,58.89
2023-03-26T14:36:43.480Z,66.96
2023-03-26T14:41:56.701Z,82.03
2023-03-26T14:47:17.594Z,87.20
2023-03-26T14:52:51.805Z,84.91
2023-03-26T14:58:22.301Z,85.53
2023-03-26T15:04:08.193Z,86.82
2023-03-26T15:09:42.990Z,80.39
2023-03-26T15:15:07.306Z,80.67
2023-03-26T15:20:45.983Z,81.40
2023-03-26T15:26:25.720Z,78.55
2023-03-26T15:31:48.780Z,85.10
2023-03-26T15:37:19.093Z,86.53
2023-03-26T15:42:53.688Z,89.67
2023-03-26T15:48:11.951Z,85.93
2023-03-26T15:53:26.318Z,86.61
2023-03-26T15:58:37.008Z,89.35
2023-03-26T16:04:02.336Z,86.91
2023-03-26T16:09:10.616Z,88.59
2023-03-26T16:14:24.926Z,87.86
2023-03-26T16:19:41.221Z,87.62
2023-03-26T16:25:27.135Z,88.64
2023-03-26T16:30:33.008Z,88.51
2023-03-26T16:35:42.232Z,89.35
2023-03-26T16:41:01.292Z,87.79
2023-03-26T16:46:20.824Z,85.20
2023-03-26T16:52:01.064Z,86.58
2023-03-26T16:57:25.060Z,85.43
2023-03-26T17:02:37.074Z,85.87
2023-03-26T17:07:47.355Z,85.35
2023-03-26T17:12:54.449Z,85.98
2023-03-26T17:18:21.865Z,86.71
2023-03-26T17:23:39.068Z,87.31
2023-03-26T17:29:24.290Z,86.66
2023-03-26T17:34:39.150Z,85.72
2023-03-26T17:39:43.602Z,85.56
2023-03-26T17:44:47.798Z,85.94
2023-03-26T17:50:12.511Z,85.36
2023-03-26T17:55:22.032Z,85.49
2023-03-26T18:00:45.259Z,86.61
2023-03-26T18:05:49.458Z,86.68
2023-03-26T18:11:19.974Z,85.46
2023-03-26T18:16:42.717Z,86.55
2023-03-26T18:21:59.549Z,86.74
2023-03-26T18:27:13.076Z,86.87
2023-03-26T18:32:22.854Z,87.02
2023-03-26T18:37:28.536Z,88.92
2023-03-26T18:42:33.109Z,87.79
2023-03-26T18:47:38.335Z,88.43
2023-03-26T18:52:42.214Z,87.40
2023-03-26T18:57:45.046Z,87.93
2023-03-26T19:02:51.508Z,87.47
2023-03-26T19:07:55.338Z,87.91
2023-03-26T19:13:00.828Z,87.91
2023-03-26T19:18:07.628Z,88.29
2023-03-26T19:23:15.598Z,87.02
2023-03-26T19:28:24.967Z,85.80
2023-03-26T19:33:35.075Z,86.41
2023-03-26T19:38:49.710Z,87.41
2023-03-26T19:43:55.828Z,87.81
2023-03-26T19:48:59.195Z,88.42
2023-03-26T19:54:04.053Z,87.52
2023-03-26T19:59:06.645Z,89.30
2023-03-26T20:04:13.749Z,90.33
2023-03-26T20:09:16.866Z,88.63
2023-03-26T20:14:26.156Z,87.61
2023-03-26T20:19:29.839Z,87.67
2023-03-26T20:24:33.889Z,87.24
2023-03-26T20:29:36.913Z,85.82
2023-03-26T20:34:40.148Z,85.59
2023-03-26T20:39:42.915Z,86.01
2023-03-26T20:44:45.612Z,86.73
2023-03-26T20:49:48.362Z,86.50
2023-03-26T20:54:52.074Z,87.18
2023-03-26T20:59:55.801Z,86.92
2023-03-26T21:04:58.406Z,87.73
2023-03-26T21:10:03.223Z,86.92
2023-03-26T21:15:13.448Z,87.24
2023-03-26T21:20:20.990Z,88.69
2023-03-26T21:25:43.391Z,90.18
2023-03-26T21:30:47.309Z,90.46
2023-03-26T21:35:52.002Z,93.41
2023-03-26T21:41:03.569Z,96.59
2023-03-26T21:46:06.889Z,98.98
2023-03-26T21:51:14.850Z,99.28
2023-03-26T21:56:46.203Z,100.00
2023-03-26T22:02:02.762Z,100.00
2023-03-26T22:07:13.968Z,100.00
2023-03-26T22:12:17.167Z,100.00
2023-03-26T22:17:20.501Z,100.00
2023-03-26T22:22:26.244Z,100.00
2023-03-26T22:27:28.832Z,100.00
2023-03-26T22:32:32.650Z,100.00
2023-03-26T22:37:37.299Z,100.00
2023-03-26T22:42:41.129Z,100.00
2023-03-26T22:47:45.077Z,100.00
2023-03-26T22:52:47.655Z,100.00
2023-03-26T22:57:53.364Z,100.00
2023-03-26T23:03:00.572Z,100.00
2023-03-26T23:08:03.834Z,100.00
2023-03-26T23:13:06.294Z,100.00
2023-03-26T23:18:08.818Z,100.00
2023-03-26T23:23:11.313Z,100.00
2023-03-26T23:28:14.711Z,100.00
2023-03-26T23:33:17.318Z,100.00
2023-03-26T23:38:22.445Z,100.00
2023-03-26T23:43:26.285Z,100.00
2023-03-26T23:48:29.845Z,100.00
2023-03-26T23:53:32.921Z,100.00
2023-03-26T23:58:36.131Z,100.00
